sensor_id;sensor_type;location;lat;lon;timestamp;P1;durP1;ratioP1;P2;durP2;ratioP2
21868;SDS011;11099;41.564;23.296;2023-04-15T00:01:26;4.93;;;2.45;;
21868;SDS011;11099;41.564;23.296;2023-04-15T00:03:53;6.03;;;2.28;;
21868;SDS011;11099;41.564;23.296;2023-04-15T00:06:19;3.15;;;2.30;;
21868;SDS011;11099;41.564;23.296;2023-04-15T00:08:45;3.97;;;2.42;;
21868;SDS011;11099;41.564;23.296;2023-04-15T00:11:12;3.55;;;2.17;;
21868;SDS011;11099;41.564;23.296;2023-04-15T00:13:38;5.13;;;2.10;;
21868;SDS011;11099;41.564;23.296;2023-04-15T00:16:04;3.80;;;2.33;;
21868;SDS011;11099;41.564;23.296;2023-04-15T00:18:32;5.70;;;2.10;;
21868;SDS011;11099;41.564;23.296;2023-04-15T00:20:58;3.13;;;1.88;;
21868;SDS011;11099;41.564;23.296;2023-04-15T00:23:23;2.42;;;2.20;;
21868;SDS011;11099;41.564;23.296;2023-04-15T00:25:50;3.15;;;2.40;;
21868;SDS011;11099;41.564;23.296;2023-04-15T00:28:16;3.30;;;2.40;;
21868;SDS011;11099;41.564;23.296;2023-04-15T00:30:42;4.35;;;2.20;;
21868;SDS011;11099;41.564;23.296;2023-04-15T00:33:07;6.72;;;3.08;;
21868;SDS011;11099;41.564;23.296;2023-04-15T00:35:34;3.92;;;2.90;;
21868;SDS011;11099;41.564;23.296;2023-04-15T00:38:00;4.90;;;3.50;;
21868;SDS011;11099;41.564;23.296;2023-04-15T00:40:26;7.07;;;4.72;;
21868;SDS011;11099;41.564;23.296;2023-04-15T00:42:51;5.45;;;4.13;;
21868;SDS011;11099;41.564;23.296;2023-04-15T00:45:17;6.32;;;4.20;;
21868;SDS011;11099;41.564;23.296;2023-04-15T00:47:43;10.75;;;5.15;;
21868;SDS011;11099;41.564;23.296;2023-04-15T00:50:09;5.97;;;4.30;;
21868;SDS011;11099;41.564;23.296;2023-04-15T00:52:36;6.85;;;4.10;;
21868;SDS011;11099;41.564;23.296;2023-04-15T00:55:03;6.60;;;4.18;;
21868;SDS011;11099;41.564;23.296;2023-04-15T00:57:29;6.47;;;4.72;;
21868;SDS011;11099;41.564;23.296;2023-04-15T00:59:55;10.07;;;5.15;;
21868;SDS011;11099;41.564;23.296;2023-04-15T01:02:21;5.63;;;4.78;;
21868;SDS011;11099;41.564;23.296;2023-04-15T01:04:48;7.30;;;4.97;;
21868;SDS011;11099;41.564;23.296;2023-04-15T01:07:14;9.55;;;5.47;;
21868;SDS011;11099;41.564;23.296;2023-04-15T01:09:40;6.15;;;5.50;;
21868;SDS011;11099;41.564;23.296;2023-04-15T01:12:06;7.63;;;5.07;;
21868;SDS011;11099;41.564;23.296;2023-04-15T01:14:34;8.45;;;5.47;;
21868;SDS011;11099;41.564;23.296;2023-04-15T01:17:00;6.70;;;5.50;;
21868;SDS011;11099;41.564;23.296;2023-04-15T01:19:26;7.00;;;5.63;;
21868;SDS011;11099;41.564;23.296;2023-04-15T01:21:52;7.95;;;5.43;;
21868;SDS011;11099;41.564;23.296;2023-04-15T01:24:18;10.38;;;6.00;;
21868;SDS011;11099;41.564;23.296;2023-04-15T01:26:44;9.15;;;4.80;;
21868;SDS011;11099;41.564;23.296;2023-04-15T01:29:10;7.13;;;5.10;;
21868;SDS011;11099;41.564;23.296;2023-04-15T01:31:36;8.65;;;5.57;;
21868;SDS011;11099;41.564;23.296;2023-04-15T01:34:02;10.68;;;4.97;;
21868;SDS011;11099;41.564;23.296;2023-04-15T01:36:28;6.65;;;5.30;;
21868;SDS011;11099;41.564;23.296;2023-04-15T01:38:54;10.98;;;5.10;;
21868;SDS011;11099;41.564;23.296;2023-04-15T01:41:23;5.75;;;4.68;;
21868;SDS011;11099;41.564;23.296;2023-04-15T01:43:50;10.07;;;4.78;;
21868;SDS011;11099;41.564;23.296;2023-04-15T01:46:16;7.13;;;5.10;;
21868;SDS011;11099;41.564;23.296;2023-04-15T01:48:42;7.20;;;5.03;;
21868;SDS011;11099;41.564;23.296;2023-04-15T01:51:07;8.73;;;5.90;;
21868;SDS011;11099;41.564;23.296;2023-04-15T01:53:33;12.32;;;6.50;;
21868;SDS011;11099;41.564;23.296;2023-04-15T01:55:58;7.00;;;5.72;;
21868;SDS011;11099;41.564;23.296;2023-04-15T01:58:24;5.75;;;5.05;;
21868;SDS011;11099;41.564;23.296;2023-04-15T02:00:50;8.57;;;4.45;;
21868;SDS011;11099;41.564;23.296;2023-04-15T02:03:15;4.85;;;3.63;;
21868;SDS011;11099;41.564;23.296;2023-04-15T02:05:41;4.38;;;3.97;;
21868;SDS011;11099;41.564;23.296;2023-04-15T02:08:07;6.90;;;4.60;;
21868;SDS011;11099;41.564;23.296;2023-04-15T02:10:33;5.55;;;4.28;;
21868;SDS011;11099;41.564;23.296;2023-04-15T02:12:59;6.80;;;4.38;;
21868;SDS011;11099;41.564;23.296;2023-04-15T02:15:25;6.15;;;4.00;;
21868;SDS011;11099;41.564;23.296;2023-04-15T02:17:50;5.38;;;4.85;;
21868;SDS011;11099;41.564;23.296;2023-04-15T02:20:17;7.13;;;4.90;;
21868;SDS011;11099;41.564;23.296;2023-04-15T02:22:43;8.68;;;5.63;;
21868;SDS011;11099;41.564;23.296;2023-04-15T02:25:09;7.95;;;5.97;;
21868;SDS011;11099;41.564;23.296;2023-04-15T02:27:35;9.70;;;8.05;;
21868;SDS011;11099;41.564;23.296;2023-04-15T02:30:01;11.20;;;8.90;;
21868;SDS011;11099;41.564;23.296;2023-04-15T02:32:27;10.32;;;9.10;;
21868;SDS011;11099;41.564;23.296;2023-04-15T02:34:53;12.43;;;9.82;;
21868;SDS011;11099;41.564;23.296;2023-04-15T02:37:19;14.18;;;10.50;;
21868;SDS011;11099;41.564;23.296;2023-04-15T02:39:45;15.50;;;9.23;;
21868;SDS011;11099;41.564;23.296;2023-04-15T02:42:10;15.18;;;10.13;;
21868;SDS011;11099;41.564;23.296;2023-04-15T02:44:37;14.60;;;10.07;;
21868;SDS011;11099;41.564;23.296;2023-04-15T02:47:02;14.10;;;9.95;;
21868;SDS011;11099;41.564;23.296;2023-04-15T02:49:30;12.32;;;9.60;;
21868;SDS011;11099;41.564;23.296;2023-04-15T02:51:56;13.60;;;9.43;;
21868;SDS011;11099;41.564;23.296;2023-04-15T02:54:22;15.45;;;10.68;;
21868;SDS011;11099;41.564;23.296;2023-04-15T02:56:48;12.93;;;9.07;;
21868;SDS011;11099;41.564;23.296;2023-04-15T02:59:14;11.75;;;9.25;;
21868;SDS011;11099;41.564;23.296;2023-04-15T03:01:39;14.60;;;9.95;;
21868;SDS011;11099;41.564;23.296;2023-04-15T03:04:05;18.88;;;11.13;;
21868;SDS011;11099;41.564;23.296;2023-04-15T03:06:32;18.60;;;11.57;;
21868;SDS011;11099;41.564;23.296;2023-04-15T03:08:58;18.40;;;13.48;;
21868;SDS011;11099;41.564;23.296;2023-04-15T03:11:24;20.77;;;15.45;;
21868;SDS011;11099;41.564;23.296;2023-04-15T03:13:51;19.40;;;14.30;;
21868;SDS011;11099;41.564;23.296;2023-04-15T03:16:17;20.50;;;15.73;;
21868;SDS011;11099;41.564;23.296;2023-04-15T03:18:42;20.15;;;13.40;;
21868;SDS011;11099;41.564;23.296;2023-04-15T03:21:08;25.98;;;19.05;;
21868;SDS011;11099;41.564;23.296;2023-04-15T03:23:33;18.25;;;14.13;;
21868;SDS011;11099;41.564;23.296;2023-04-15T03:26:03;14.35;;;12.10;;
21868;SDS011;11099;41.564;23.296;2023-04-15T03:28:29;19.83;;;12.55;;
21868;SDS011;11099;41.564;23.296;2023-04-15T03:30:55;13.18;;;10.43;;
21868;SDS011;11099;41.564;23.296;2023-04-15T03:33:20;11.77;;;9.35;;
21868;SDS011;11099;41.564;23.296;2023-04-15T03:35:46;12.48;;;7.65;;
21868;SDS011;11099;41.564;23.296;2023-04-15T03:38:12;11.07;;;8.38;;
21868;SDS011;11099;41.564;23.296;2023-04-15T03:40:39;15.02;;;9.05;;
21868;SDS011;11099;41.564;23.296;2023-04-15T03:43:05;10.77;;;8.93;;
21868;SDS011;11099;41.564;23.296;2023-04-15T03:45:31;14.95;;;9.00;;
21868;SDS011;11099;41.564;23.296;2023-04-15T03:47:56;14.23;;;8.93;;
21868;SDS011;11099;41.564;23.296;2023-04-15T03:50:22;15.38;;;9.65;;
21868;SDS011;11099;41.564;23.296;2023-04-15T03:52:47;11.30;;;7.88;;
21868;SDS011;11099;41.564;23.296;2023-04-15T03:55:13;11.07;;;7.13;;
21868;SDS011;11099;41.564;23.296;2023-04-15T03:57:39;7.65;;;5.90;;
21868;SDS011;11099;41.564;23.296;2023-04-15T04:00:05;7.15;;;6.00;;
21868;SDS011;11099;41.564;23.296;2023-04-15T04:02:33;7.53;;;5.57;;
21868;SDS011;11099;41.564;23.296;2023-04-15T04:04:59;13.93;;;6.20;;
21868;SDS011;11099;41.564;23.296;2023-04-15T04:07:24;15.02;;;11.35;;
21868;SDS011;11099;41.564;23.296;2023-04-15T04:09:50;9.98;;;6.13;;
21868;SDS011;11099;41.564;23.296;2023-04-15T04:12:16;9.75;;;7.63;;
21868;SDS011;11099;41.564;23.296;2023-04-15T04:14:41;16.85;;;11.25;;
21868;SDS011;11099;41.564;23.296;2023-04-15T04:17:07;15.40;;;10.75;;
21868;SDS011;11099;41.564;23.296;2023-04-15T04:19:33;9.98;;;7.03;;
21868;SDS011;11099;41.564;23.296;2023-04-15T04:21:59;10.70;;;7.57;;
21868;SDS011;11099;41.564;23.296;2023-04-15T04:24:25;8.27;;;6.45;;
21868;SDS011;11099;41.564;23.296;2023-04-15T04:26:50;9.98;;;6.45;;
21868;SDS011;11099;41.564;23.296;2023-04-15T04:29:16;9.38;;;6.90;;
21868;SDS011;11099;41.564;23.296;2023-04-15T04:31:41;13.52;;;9.27;;
21868;SDS011;11099;41.564;23.296;2023-04-15T04:34:07;19.33;;;11.27;;
21868;SDS011;11099;41.564;23.296;2023-04-15T04:36:32;21.45;;;14.82;;
21868;SDS011;11099;41.564;23.296;2023-04-15T04:38:58;22.00;;;15.15;;
21868;SDS011;11099;41.564;23.296;2023-04-15T04:41:25;25.13;;;15.77;;
21868;SDS011;11099;41.564;23.296;2023-04-15T04:43:51;22.20;;;15.90;;
21868;SDS011;11099;41.564;23.296;2023-04-15T04:46:16;23.98;;;16.98;;
21868;SDS011;11099;41.564;23.296;2023-04-15T04:48:42;20.90;;;16.00;;
21868;SDS011;11099;41.564;23.296;2023-04-15T04:51:07;27.30;;;19.98;;
21868;SDS011;11099;41.564;23.296;2023-04-15T04:53:33;29.05;;;21.38;;
21868;SDS011;11099;41.564;23.296;2023-04-15T04:55:59;24.15;;;17.45;;
21868;SDS011;11099;41.564;23.296;2023-04-15T04:58:24;24.45;;;16.98;;
21868;SDS011;11099;41.564;23.296;2023-04-15T05:00:50;19.60;;;14.73;;
21868;SDS011;11099;41.564;23.296;2023-04-15T05:03:16;25.90;;;17.75;;
21868;SDS011;11099;41.564;23.296;2023-04-15T05:05:41;25.13;;;17.90;;
21868;SDS011;11099;41.564;23.296;2023-04-15T05:08:07;18.88;;;13.13;;
21868;SDS011;11099;41.564;23.296;2023-04-15T05:10:33;20.67;;;15.30;;
21868;SDS011;11099;41.564;23.296;2023-04-15T05:12:58;18.80;;;14.20;;
21868;SDS011;11099;41.564;23.296;2023-04-15T05:15:24;19.70;;;12.13;;
21868;SDS011;11099;41.564;23.296;2023-04-15T05:17:49;19.60;;;15.45;;
21868;SDS011;11099;41.564;23.296;2023-04-15T05:20:15;22.30;;;16.63;;
21868;SDS011;11099;41.564;23.296;2023-04-15T05:22:41;22.80;;;14.07;;
21868;SDS011;11099;41.564;23.296;2023-04-15T05:25:07;23.55;;;15.65;;
21868;SDS011;11099;41.564;23.296;2023-04-15T05:27:33;37.33;;;22.73;;
21868;SDS011;11099;41.564;23.296;2023-04-15T05:29:59;32.90;;;21.00;;
21868;SDS011;11099;41.564;23.296;2023-04-15T05:32:24;42.30;;;25.40;;
21868;SDS011;11099;41.564;23.296;2023-04-15T05:34:50;35.65;;;22.52;;
21868;SDS011;11099;41.564;23.296;2023-04-15T05:37:16;43.50;;;24.67;;
21868;SDS011;11099;41.564;23.296;2023-04-15T05:39:41;30.13;;;20.88;;
21868;SDS011;11099;41.564;23.296;2023-04-15T05:42:07;30.38;;;21.17;;
21868;SDS011;11099;41.564;23.296;2023-04-15T05:44:32;26.80;;;18.80;;
21868;SDS011;11099;41.564;23.296;2023-04-15T05:46:58;22.42;;;17.45;;
21868;SDS011;11099;41.564;23.296;2023-04-15T05:49:24;24.60;;;16.88;;
21868;SDS011;11099;41.564;23.296;2023-04-15T05:51:49;26.88;;;18.88;;
21868;SDS011;11099;41.564;23.296;2023-04-15T05:54:15;45.25;;;24.10;;
21868;SDS011;11099;41.564;23.296;2023-04-15T05:56:41;83.88;;;27.08;;
21868;SDS011;11099;41.564;23.296;2023-04-15T05:59:06;60.85;;;24.23;;
21868;SDS011;11099;41.564;23.296;2023-04-15T06:01:32;87.88;;;21.92;;
21868;SDS011;11099;41.564;23.296;2023-04-15T06:03:59;48.63;;;30.10;;
21868;SDS011;11099;41.564;23.296;2023-04-15T06:06:25;62.67;;;30.73;;
21868;SDS011;11099;41.564;23.296;2023-04-15T06:08:51;47.90;;;31.73;;
21868;SDS011;11099;41.564;23.296;2023-04-15T06:11:17;34.95;;;25.15;;
21868;SDS011;11099;41.564;23.296;2023-04-15T06:13:45;44.20;;;30.58;;
21868;SDS011;11099;41.564;23.296;2023-04-15T06:16:10;33.03;;;22.63;;
21868;SDS011;11099;41.564;23.296;2023-04-15T06:18:36;35.40;;;23.95;;
21868;SDS011;11099;41.564;23.296;2023-04-15T06:21:02;26.60;;;18.65;;
21868;SDS011;11099;41.564;23.296;2023-04-15T06:23:27;33.67;;;25.63;;
21868;SDS011;11099;41.564;23.296;2023-04-15T06:25:54;27.77;;;18.25;;
21868;SDS011;11099;41.564;23.296;2023-04-15T06:28:22;31.38;;;20.00;;
21868;SDS011;11099;41.564;23.296;2023-04-15T06:30:47;66.35;;;23.38;;
21868;SDS011;11099;41.564;23.296;2023-04-15T06:33:13;73.10;;;24.02;;
21868;SDS011;11099;41.564;23.296;2023-04-15T06:35:38;68.97;;;26.70;;
21868;SDS011;11099;41.564;23.296;2023-04-15T06:38:04;50.22;;;25.67;;
21868;SDS011;11099;41.564;23.296;2023-04-15T06:40:30;43.33;;;21.70;;
21868;SDS011;11099;41.564;23.296;2023-04-15T06:42:55;40.38;;;27.83;;
21868;SDS011;11099;41.564;23.296;2023-04-15T06:45:21;34.17;;;23.35;;
21868;SDS011;11099;41.564;23.296;2023-04-15T06:47:46;57.38;;;19.85;;
21868;SDS011;11099;41.564;23.296;2023-04-15T06:50:12;48.42;;;15.23;;
21868;SDS011;11099;41.564;23.296;2023-04-15T06:52:37;33.17;;;17.73;;
21868;SDS011;11099;41.564;23.296;2023-04-15T06:55:03;20.55;;;15.98;;
21868;SDS011;11099;41.564;23.296;2023-04-15T06:57:29;26.48;;;15.32;;
21868;SDS011;11099;41.564;23.296;2023-04-15T06:59:54;29.92;;;16.60;;
21868;SDS011;11099;41.564;23.296;2023-04-15T07:02:20;23.63;;;15.80;;
21868;SDS011;11099;41.564;23.296;2023-04-15T07:04:46;26.92;;;16.30;;
21868;SDS011;11099;41.564;23.296;2023-04-15T07:07:11;22.42;;;14.07;;
21868;SDS011;11099;41.564;23.296;2023-04-15T07:09:37;36.00;;;13.15;;
21868;SDS011;11099;41.564;23.296;2023-04-15T07:12:03;18.52;;;12.45;;
21868;SDS011;11099;41.564;23.296;2023-04-15T07:14:28;48.45;;;16.25;;
21868;SDS011;11099;41.564;23.296;2023-04-15T07:16:54;26.85;;;19.00;;
21868;SDS011;11099;41.564;23.296;2023-04-15T07:19:20;38.47;;;25.15;;
21868;SDS011;11099;41.564;23.296;2023-04-15T07:21:46;35.38;;;25.55;;
21868;SDS011;11099;41.564;23.296;2023-04-15T07:24:11;121.20;;;33.30;;
21868;SDS011;11099;41.564;23.296;2023-04-15T07:26:41;165.93;;;36.20;;
21868;SDS011;11099;41.564;23.296;2023-04-15T07:29:06;47.22;;;32.03;;
21868;SDS011;11099;41.564;23.296;2023-04-15T07:31:31;34.30;;;21.67;;
21868;SDS011;11099;41.564;23.296;2023-04-15T07:33:57;27.83;;;21.83;;
21868;SDS011;11099;41.564;23.296;2023-04-15T07:36:22;36.00;;;24.33;;
21868;SDS011;11099;41.564;23.296;2023-04-15T07:38:48;30.02;;;22.92;;
21868;SDS011;11099;41.564;23.296;2023-04-15T07:41:13;27.05;;;19.77;;
21868;SDS011;11099;41.564;23.296;2023-04-15T07:43:39;28.35;;;20.80;;
21868;SDS011;11099;41.564;23.296;2023-04-15T07:46:05;24.80;;;19.63;;
21868;SDS011;11099;41.564;23.296;2023-04-15T07:48:30;27.08;;;19.70;;
21868;SDS011;11099;41.564;23.296;2023-04-15T07:50:56;24.52;;;17.67;;
21868;SDS011;11099;41.564;23.296;2023-04-15T07:53:22;26.48;;;19.08;;
21868;SDS011;11099;41.564;23.296;2023-04-15T07:55:48;26.77;;;18.48;;
21868;SDS011;11099;41.564;23.296;2023-04-15T07:58:13;18.40;;;13.73;;
21868;SDS011;11099;41.564;23.296;2023-04-15T08:00:39;16.70;;;13.45;;
21868;SDS011;11099;41.564;23.296;2023-04-15T08:03:04;16.15;;;13.05;;
21868;SDS011;11099;41.564;23.296;2023-04-15T08:05:30;15.73;;;12.45;;
21868;SDS011;11099;41.564;23.296;2023-04-15T08:07:56;20.05;;;13.90;;
21868;SDS011;11099;41.564;23.296;2023-04-15T08:10:22;18.58;;;14.55;;
21868;SDS011;11099;41.564;23.296;2023-04-15T08:12:48;15.43;;;13.18;;
21868;SDS011;11099;41.564;23.296;2023-04-15T08:15:13;19.55;;;14.43;;
21868;SDS011;11099;41.564;23.296;2023-04-15T08:17:39;17.33;;;13.57;;
21868;SDS011;11099;41.564;23.296;2023-04-15T08:20:05;15.55;;;11.52;;
21868;SDS011;11099;41.564;23.296;2023-04-15T08:22:31;18.15;;;14.63;;
21868;SDS011;11099;41.564;23.296;2023-04-15T08:24:56;18.35;;;12.50;;
21868;SDS011;11099;41.564;23.296;2023-04-15T08:27:22;19.13;;;16.42;;
21868;SDS011;11099;41.564;23.296;2023-04-15T08:29:47;17.73;;;12.88;;
21868;SDS011;11099;41.564;23.296;2023-04-15T08:32:12;11.65;;;10.45;;
21868;SDS011;11099;41.564;23.296;2023-04-15T08:34:38;16.23;;;11.63;;
21868;SDS011;11099;41.564;23.296;2023-04-15T08:37:04;11.82;;;10.13;;
21868;SDS011;11099;41.564;23.296;2023-04-15T08:39:30;13.95;;;10.05;;
21868;SDS011;11099;41.564;23.296;2023-04-15T08:41:59;15.80;;;9.80;;
21868;SDS011;11099;41.564;23.296;2023-04-15T08:44:28;12.95;;;9.63;;
21868;SDS011;11099;41.564;23.296;2023-04-15T08:46:56;13.18;;;9.85;;
21868;SDS011;11099;41.564;23.296;2023-04-15T08:49:25;11.55;;;7.95;;
21868;SDS011;11099;41.564;23.296;2023-04-15T08:51:52;12.15;;;8.60;;
21868;SDS011;11099;41.564;23.296;2023-04-15T08:54:20;10.70;;;8.48;;
21868;SDS011;11099;41.564;23.296;2023-04-15T08:56:46;9.80;;;6.57;;
21868;SDS011;11099;41.564;23.296;2023-04-15T08:59:13;7.22;;;4.90;;
21868;SDS011;11099;41.564;23.296;2023-04-15T09:01:40;11.45;;;7.10;;
21868;SDS011;11099;41.564;23.296;2023-04-15T09:04:06;11.40;;;6.18;;
21868;SDS011;11099;41.564;23.296;2023-04-15T09:06:32;13.90;;;6.47;;
21868;SDS011;11099;41.564;23.296;2023-04-15T09:08:58;10.82;;;6.93;;
21868;SDS011;11099;41.564;23.296;2023-04-15T09:11:23;17.80;;;8.32;;
21868;SDS011;11099;41.564;23.296;2023-04-15T09:13:49;6.88;;;5.07;;
21868;SDS011;11099;41.564;23.296;2023-04-15T09:16:14;7.93;;;4.30;;
21868;SDS011;11099;41.564;23.296;2023-04-15T09:18:40;13.82;;;6.70;;
21868;SDS011;11099;41.564;23.296;2023-04-15T09:21:13;13.65;;;5.75;;
21868;SDS011;11099;41.564;23.296;2023-04-15T09:23:41;39.70;;;22.13;;
21868;SDS011;11099;41.564;23.296;2023-04-15T09:29:04;12.93;;;6.03;;
21868;SDS011;11099;41.564;23.296;2023-04-15T09:31:31;8.10;;;5.15;;
21868;SDS011;11099;41.564;23.296;2023-04-15T09:33:57;8.65;;;4.85;;
21868;SDS011;11099;41.564;23.296;2023-04-15T09:36:22;6.75;;;4.78;;
21868;SDS011;11099;41.564;23.296;2023-04-15T09:38:56;7.57;;;4.80;;
21868;SDS011;11099;41.564;23.296;2023-04-15T09:41:23;8.63;;;6.25;;
21868;SDS011;11099;41.564;23.296;2023-04-15T09:43:49;6.53;;;4.68;;
21868;SDS011;11099;41.564;23.296;2023-04-15T09:46:15;7.00;;;5.90;;
21868;SDS011;11099;41.564;23.296;2023-04-15T09:48:41;7.93;;;4.38;;
21868;SDS011;11099;41.564;23.296;2023-04-15T09:51:06;6.10;;;4.55;;
21868;SDS011;11099;41.564;23.296;2023-04-15T09:53:33;10.25;;;8.95;;
21868;SDS011;11099;41.564;23.296;2023-04-15T09:56:00;4.85;;;4.28;;
21868;SDS011;11099;41.564;23.296;2023-04-15T09:58:27;9.77;;;5.80;;
21868;SDS011;11099;41.564;23.296;2023-04-15T10:00:58;6.07;;;3.67;;
21868;SDS011;11099;41.564;23.296;2023-04-15T10:03:27;14.45;;;8.15;;
21868;SDS011;11099;41.564;23.296;2023-04-15T10:05:58;8.25;;;3.97;;
21868;SDS011;11099;41.564;23.296;2023-04-15T10:08:27;5.65;;;4.38;;
21868;SDS011;11099;41.564;23.296;2023-04-15T10:10:54;8.75;;;4.55;;
21868;SDS011;11099;41.564;23.296;2023-04-15T10:13:26;5.75;;;3.15;;
21868;SDS011;11099;41.564;23.296;2023-04-15T10:16:09;4.13;;;3.03;;
21868;SDS011;11099;41.564;23.296;2023-04-15T10:18:41;6.82;;;3.30;;
21868;SDS011;11099;41.564;23.296;2023-04-15T10:21:08;5.70;;;2.15;;
21868;SDS011;11099;41.564;23.296;2023-04-15T10:23:34;4.25;;;2.00;;
21868;SDS011;11099;41.564;23.296;2023-04-15T10:26:00;2.50;;;1.95;;
21868;SDS011;11099;41.564;23.296;2023-04-15T10:28:28;3.05;;;1.70;;
21868;SDS011;11099;41.564;23.296;2023-04-15T10:30:54;3.53;;;2.20;;
21868;SDS011;11099;41.564;23.296;2023-04-15T10:33:21;3.35;;;2.15;;
21868;SDS011;11099;41.564;23.296;2023-04-15T10:35:49;4.25;;;1.90;;
21868;SDS011;11099;41.564;23.296;2023-04-15T10:41:16;1.60;;;1.50;;
21868;SDS011;11099;41.564;23.296;2023-04-15T10:43:44;2.78;;;2.00;;
21868;SDS011;11099;41.564;23.296;2023-04-15T10:46:18;2.22;;;1.70;;
21868;SDS011;11099;41.564;23.296;2023-04-15T10:48:49;6.00;;;1.50;;
21868;SDS011;11099;41.564;23.296;2023-04-15T10:51:25;2.03;;;1.58;;
21868;SDS011;11099;41.564;23.296;2023-04-15T10:53:55;9.85;;;5.80;;
21868;SDS011;11099;41.564;23.296;2023-04-15T10:56:21;21.98;;;12.73;;
21868;SDS011;11099;41.564;23.296;2023-04-15T10:58:47;1.95;;;1.20;;
21868;SDS011;11099;41.564;23.296;2023-04-15T11:01:12;2.92;;;1.92;;
21868;SDS011;11099;41.564;23.296;2023-04-15T11:03:39;8.77;;;4.97;;
21868;SDS011;11099;41.564;23.296;2023-04-15T11:14:32;13.45;;;7.10;;
21868;SDS011;11099;41.564;23.296;2023-04-15T11:17:00;11.52;;;7.07;;
21868;SDS011;11099;41.564;23.296;2023-04-15T11:19:25;1.17;;;0.90;;
21868;SDS011;11099;41.564;23.296;2023-04-15T11:21:51;2.95;;;1.70;;
21868;SDS011;11099;41.564;23.296;2023-04-15T11:24:23;8.57;;;5.47;;
21868;SDS011;11099;41.564;23.296;2023-04-15T11:26:58;3.00;;;1.85;;
21868;SDS011;11099;41.564;23.296;2023-04-15T11:29:27;2.92;;;1.80;;
21868;SDS011;11099;41.564;23.296;2023-04-15T11:32:05;5.50;;;1.80;;
21868;SDS011;11099;41.564;23.296;2023-04-15T11:34:33;9.50;;;6.10;;
21868;SDS011;11099;41.564;23.296;2023-04-15T11:37:02;4.53;;;1.85;;
21868;SDS011;11099;41.564;23.296;2023-04-15T11:39:28;5.68;;;3.65;;
21868;SDS011;11099;41.564;23.296;2023-04-15T11:41:54;7.95;;;4.93;;
21868;SDS011;11099;41.564;23.296;2023-04-15T11:44:20;6.30;;;3.63;;
21868;SDS011;11099;41.564;23.296;2023-04-15T11:46:45;11.60;;;5.63;;
21868;SDS011;11099;41.564;23.296;2023-04-15T11:49:10;1.95;;;1.30;;
21868;SDS011;11099;41.564;23.296;2023-04-15T11:51:36;3.15;;;1.98;;
21868;SDS011;11099;41.564;23.296;2023-04-15T11:54:01;4.82;;;1.92;;
21868;SDS011;11099;41.564;23.296;2023-04-15T11:56:27;16.65;;;8.35;;
21868;SDS011;11099;41.564;23.296;2023-04-15T11:58:56;24.95;;;12.95;;
21868;SDS011;11099;41.564;23.296;2023-04-15T12:01:45;1.77;;;1.63;;
21868;SDS011;11099;41.564;23.296;2023-04-15T12:04:15;4.38;;;1.70;;
21868;SDS011;11099;41.564;23.296;2023-04-15T12:06:44;2.60;;;0.80;;
21868;SDS011;11099;41.564;23.296;2023-04-15T12:09:13;4.80;;;1.48;;
21868;SDS011;11099;41.564;23.296;2023-04-15T12:14:09;1.17;;;1.00;;
21868;SDS011;11099;41.564;23.296;2023-04-15T12:16:58;3.58;;;3.10;;
21868;SDS011;11099;41.564;23.296;2023-04-15T12:22:03;2.33;;;1.30;;
21868;SDS011;11099;41.564;23.296;2023-04-15T12:24:34;3.13;;;1.05;;
21868;SDS011;11099;41.564;23.296;2023-04-15T12:27:02;1.27;;;0.70;;
21868;SDS011;11099;41.564;23.296;2023-04-15T12:29:29;0.68;;;0.45;;
21868;SDS011;11099;41.564;23.296;2023-04-15T12:31:56;1.42;;;0.90;;
21868;SDS011;11099;41.564;23.296;2023-04-15T12:36:53;1.75;;;0.75;;
21868;SDS011;11099;41.564;23.296;2023-04-15T12:39:24;3.47;;;2.38;;
21868;SDS011;11099;41.564;23.296;2023-04-15T12:41:51;1.52;;;1.05;;
21868;SDS011;11099;41.564;23.296;2023-04-15T12:44:17;1.20;;;0.70;;
21868;SDS011;11099;41.564;23.296;2023-04-15T12:46:43;2.13;;;1.05;;
21868;SDS011;11099;41.564;23.296;2023-04-15T12:49:09;3.80;;;1.10;;
21868;SDS011;11099;41.564;23.296;2023-04-15T12:51:35;1.65;;;0.90;;
21868;SDS011;11099;41.564;23.296;2023-04-15T12:54:00;0.52;;;0.52;;
21868;SDS011;11099;41.564;23.296;2023-04-15T12:56:26;1.42;;;0.90;;
21868;SDS011;11099;41.564;23.296;2023-04-15T12:58:51;2.05;;;0.85;;
21868;SDS011;11099;41.564;23.296;2023-04-15T13:01:17;1.40;;;0.80;;
21868;SDS011;11099;41.564;23.296;2023-04-15T13:03:43;0.68;;;0.68;;
21868;SDS011;11099;41.564;23.296;2023-04-15T13:06:09;3.40;;;1.20;;
21868;SDS011;11099;41.564;23.296;2023-04-15T13:08:34;4.15;;;0.85;;
21868;SDS011;11099;41.564;23.296;2023-04-15T13:11:01;2.45;;;1.15;;
21868;SDS011;11099;41.564;23.296;2023-04-15T13:13:27;2.45;;;0.90;;
21868;SDS011;11099;41.564;23.296;2023-04-15T13:15:52;1.55;;;0.70;;
21868;SDS011;11099;41.564;23.296;2023-04-15T13:18:18;2.75;;;1.52;;
21868;SDS011;11099;41.564;23.296;2023-04-15T13:20:44;10.00;;;6.13;;
21868;SDS011;11099;41.564;23.296;2023-04-15T13:23:09;2.65;;;1.25;;
21868;SDS011;11099;41.564;23.296;2023-04-15T13:25:35;1.75;;;1.10;;
21868;SDS011;11099;41.564;23.296;2023-04-15T13:28:00;3.22;;;0.70;;
21868;SDS011;11099;41.564;23.296;2023-04-15T13:30:26;36.85;;;21.70;;
21868;SDS011;11099;41.564;23.296;2023-04-15T13:32:52;22.80;;;13.68;;
21868;SDS011;11099;41.564;23.296;2023-04-15T13:35:18;7.15;;;4.35;;
21868;SDS011;11099;41.564;23.296;2023-04-15T13:37:44;8.75;;;4.88;;
21868;SDS011;11099;41.564;23.296;2023-04-15T13:40:10;17.65;;;8.10;;
21868;SDS011;11099;41.564;23.296;2023-04-15T13:42:35;1.00;;;0.80;;
21868;SDS011;11099;41.564;23.296;2023-04-15T13:45:01;5.68;;;3.58;;
21868;SDS011;11099;41.564;23.296;2023-04-15T13:47:27;9.27;;;4.05;;
21868;SDS011;11099;41.564;23.296;2023-04-15T13:49:52;1.77;;;1.23;;
21868;SDS011;11099;41.564;23.296;2023-04-15T13:52:20;2.63;;;0.80;;
21868;SDS011;11099;41.564;23.296;2023-04-15T13:54:46;1.27;;;0.90;;
21868;SDS011;11099;41.564;23.296;2023-04-15T13:57:12;1.63;;;1.00;;
21868;SDS011;11099;41.564;23.296;2023-04-15T13:59:37;1.92;;;1.35;;
21868;SDS011;11099;41.564;23.296;2023-04-15T14:02:03;6.43;;;0.88;;
21868;SDS011;11099;41.564;23.296;2023-04-15T14:04:29;3.08;;;0.80;;
21868;SDS011;11099;41.564;23.296;2023-04-15T14:06:55;0.88;;;0.50;;
21868;SDS011;11099;41.564;23.296;2023-04-15T14:09:21;4.05;;;3.03;;
21868;SDS011;11099;41.564;23.296;2023-04-15T14:11:48;1.50;;;0.90;;
21868;SDS011;11099;41.564;23.296;2023-04-15T14:14:14;4.60;;;1.13;;
21868;SDS011;11099;41.564;23.296;2023-04-15T14:16:40;4.22;;;1.70;;
21868;SDS011;11099;41.564;23.296;2023-04-15T14:19:05;2.25;;;1.42;;
21868;SDS011;11099;41.564;23.296;2023-04-15T14:21:30;2.65;;;2.42;;
21868;SDS011;11099;41.564;23.296;2023-04-15T14:23:56;4.20;;;0.90;;
21868;SDS011;11099;41.564;23.296;2023-04-15T14:26:22;1.75;;;0.80;;
21868;SDS011;11099;41.564;23.296;2023-04-15T14:28:48;5.53;;;1.10;;
21868;SDS011;11099;41.564;23.296;2023-04-15T14:31:14;2.88;;;1.20;;
21868;SDS011;11099;41.564;23.296;2023-04-15T14:33:39;0.90;;;0.70;;
21868;SDS011;11099;41.564;23.296;2023-04-15T14:36:05;2.28;;;0.80;;
21868;SDS011;11099;41.564;23.296;2023-04-15T14:38:35;2.30;;;0.80;;
21868;SDS011;11099;41.564;23.296;2023-04-15T14:41:06;1.30;;;0.60;;